Time;durP1;ratioP1;P1;durP2;ratioP2;P2;SDS_P1;SDS_P2;PMS_P1;PMS_P2;Temp;Humidity;BMP_temperature;BMP_pressure;BME280_temperature;BME280_humidity;BME280_pressure;Samples;Min_cycle;Max_cycle;Signal;HPM_P1;HPM_P2
2022/02/18 00:01:04;;;;;;;20.75;5.25;;;;;;;8.25;84.93;100998.88;4996841;28;20053;-44
2022/02/18 00:03:37;;;;;;;18.88;5.50;;;;;;;8.24;84.78;101010.81;4998659;28;20417;-44
2022/02/18 00:06:06;;;;;;;17.95;5.55;;;;;;;8.25;85.37;101001.59;4996564;28;20052;-44
2022/02/18 00:08:35;;;;;;;18.98;5.57;;;;;;;8.23;85.38;101009.19;4997563;28;20049;-45
2022/02/18 00:11:04;;;;;;;17.85;4.97;;;;;;;8.24;85.10;101005.41;4997241;28;20122;-44
2022/02/18 00:13:32;;;;;;;19.27;5.30;;;;;;;8.25;85.66;101004.31;4997510;28;20046;-44
2022/02/18 00:16:00;;;;;;;17.60;5.93;;;;;;;8.24;84.92;100999.97;5007412;28;20050;-44
2022/02/18 00:18:28;;;;;;;21.00;6.15;;;;;;;8.22;85.24;101002.09;4996372;28;20040;-44
2022/02/18 00:20:58;;;;;;;17.60;5.80;;;;;;;8.22;85.37;100991.25;4997218;28;20042;-44
2022/02/18 00:23:26;;;;;;;18.90;5.63;;;;;;;8.21;85.49;100995.03;4996493;28;20142;-43
2022/02/18 00:25:54;;;;;;;17.05;6.15;;;;;;;8.22;86.15;101002.09;4997324;28;20050;-42
2022/02/18 00:28:22;;;;;;;16.17;5.70;;;;;;;8.20;86.46;100994.22;4995826;28;20137;-43
2022/02/18 00:30:50;;;;;;;23.33;6.28;;;;;;;8.21;86.33;100985.00;4996012;28;20504;-42
2022/02/18 00:33:19;;;;;;;17.95;5.95;;;;;;;8.21;86.48;100984.19;4998564;28;20404;-42
2022/02/18 00:35:49;;;;;;;21.40;5.85;;;;;;;8.21;86.26;100979.56;5012053;28;20456;-43
2022/02/18 00:38:17;;;;;;;22.20;6.10;;;;;;;8.22;86.07;100974.97;4996835;28;20046;-43
2022/02/18 00:40:45;;;;;;;18.13;6.13;;;;;;;8.22;86.33;100973.06;4995462;28;20069;-44
2022/02/18 00:43:14;;;;;;;18.58;5.93;;;;;;;8.21;87.26;100965.19;4995837;28;20054;-45
2022/02/18 00:45:41;;;;;;;18.15;5.80;;;;;;;8.21;87.43;100959.75;4995862;28;20039;-44
2022/02/18 00:48:09;;;;;;;21.83;6.65;;;;;;;8.22;87.57;100962.22;4995593;28;20397;-44
2022/02/18 00:50:37;;;;;;;21.33;5.82;;;;;;;8.22;87.13;100958.69;4995629;28;20413;-45
2022/02/18 00:53:06;;;;;;;20.48;5.63;;;;;;;8.21;87.66;100957.03;4995380;28;20489;-42
2022/02/18 00:55:34;;;;;;;20.02;6.38;;;;;;;8.21;87.61;100948.91;4995403;28;20046;-44
2022/02/18 00:58:01;;;;;;;20.25;6.47;;;;;;;8.22;87.29;100955.97;4996608;28;20038;-44
2022/02/18 01:00:29;;;;;;;25.42;6.50;;;;;;;8.21;87.89;100957.84;5016608;28;20052;-43
2022/02/18 01:02:57;;;;;;;17.23;5.95;;;;;;;8.22;87.84;100945.09;5015318;28;20053;-44
2022/02/18 01:05:25;;;;;;;24.25;6.20;;;;;;;8.22;87.86;100945.09;5015169;28;20210;-44
2022/02/18 01:07:52;;;;;;;20.27;6.25;;;;;;;8.23;87.79;100942.16;4999139;28;20046;-44
2022/02/18 01:10:22;;;;;;;20.90;6.15;;;;;;;8.23;87.77;100930.47;5012496;28;20064;-44
2022/02/18 01:12:49;;;;;;;15.95;5.53;;;;;;;8.23;86.87;100928.56;5015555;28;20056;-42
2022/02/18 01:15:17;;;;;;;22.73;6.30;;;;;;;8.23;87.66;100930.47;5015912;28;20404;-43
2022/02/18 01:17:45;;;;;;;18.35;5.43;;;;;;;8.22;87.68;100926.91;5012363;28;20543;-40
2022/02/18 01:20:13;;;;;;;22.55;6.47;;;;;;;8.22;87.78;100942.38;5013809;28;20416;-43
2022/02/18 01:22:40;;;;;;;15.45;4.88;;;;;;;8.22;87.25;100928.81;5015809;28;20422;-43
2022/02/18 01:25:09;;;;;;;20.25;5.15;;;;;;;8.23;87.28;100933.19;5015652;28;20042;-42
2022/02/18 01:27:39;;;;;;;18.33;5.10;;;;;;;8.24;87.31;100932.09;4998635;28;20050;-43
2022/02/18 01:30:09;;;;;;;22.90;5.30;;;;;;;8.24;86.65;100926.69;5013668;28;20057;-42
2022/02/18 01:32:38;;;;;;;15.98;4.80;;;;;;;8.24;86.65;100922.06;5014364;28;20042;-44
2022/02/18 01:35:07;;;;;;;21.13;6.30;;;;;;;8.25;86.48;100931.03;4998402;28;20037;-46
2022/02/18 01:37:35;;;;;;;21.77;5.90;;;;;;;8.23;86.58;100912.28;5014367;28;20042;-47
2022/02/18 01:40:03;;;;;;;18.05;5.75;;;;;;;8.25;87.04;100915.59;5014481;28;20069;-43
2022/02/18 01:42:32;;;;;;;17.25;5.50;;;;;;;8.26;86.53;100927.25;4999838;28;20042;-44
2022/02/18 01:45:00;;;;;;;18.73;5.55;;;;;;;8.26;86.38;100925.34;4994926;28;20042;-43
2022/02/18 01:47:27;;;;;;;19.00;5.22;;;;;;;8.25;86.19;100920.16;4995818;28;20054;-43
2022/02/18 01:49:59;;;;;;;17.40;4.57;;;;;;;8.25;86.45;100904.72;4995741;28;20117;-41
2022/02/18 01:52:33;;;;;;;18.10;4.97;;;;;;;8.28;86.26;100897.97;4995798;28;20042;-43
2022/02/18 01:55:10;;;;;;;16.42;4.72;;;;;;;8.26;85.81;100900.94;5010551;28;20049;-41
2022/02/18 01:57:59;;;;;;;16.67;4.50;;;;;;;8.29;85.82;100894.19;5015190;28;20052;-43
2022/02/18 02:00:29;;;;;;;17.45;4.75;;;;;;;8.28;86.48;100890.66;4997343;28;20042;-43
2022/02/18 02:02:58;;;;;;;19.17;5.18;;;;;;;8.29;86.48;100886.03;5015248;28;20396;-44
2022/02/18 02:05:26;;;;;;;15.15;4.80;;;;;;;8.28;86.18;100882.50;5012143;28;20486;-43
2022/02/18 02:07:53;;;;;;;14.23;4.47;;;;;;;8.29;85.66;100875.16;5015098;28;20049;-42
2022/02/18 02:10:22;;;;;;;17.58;5.47;;;;;;;8.29;86.07;100869.75;4997847;28;20048;-43
2022/02/18 02:12:53;;;;;;;21.67;5.55;;;;;;;8.29;86.40;100861.59;5013570;28;20073;-41
2022/02/18 02:15:29;;;;;;;15.35;4.93;;;;;;;8.29;85.68;100850.75;4997238;28;20073;-43
2022/02/18 02:18:01;;;;;;;15.77;4.63;;;;;;;8.29;85.91;100848.84;5011312;28;20034;-43
2022/02/18 02:20:29;;;;;;;20.70;5.22;;;;;;;8.31;86.37;100837.75;4997297;28;20052;-43
2022/02/18 02:22:58;;;;;;;16.52;4.40;;;;;;;8.30;85.97;100838.81;4997582;28;20133;-42
2022/02/18 02:25:34;;;;;;;19.00;4.85;;;;;;;8.31;86.40;100827.69;5013653;28;20041;-43
2022/02/18 02:28:08;;;;;;;20.75;5.25;;;;;;;8.31;86.55;100835.84;5009039;28;20400;-45
2022/02/18 02:30:38;;;;;;;21.27;5.63;;;;;;;8.29;86.42;100823.59;5002526;28;20133;-44
2022/02/18 02:33:07;;;;;;;17.45;4.05;;;;;;;8.30;86.38;100814.41;5013142;28;20046;-43
2022/02/18 02:35:39;;;;;;;18.25;5.05;;;;;;;8.31;86.71;100805.16;5013309;28;20122;-40
2022/02/18 02:38:08;;;;;;;19.60;5.00;;;;;;;8.32;87.50;100798.66;4996911;28;20460;-41
2022/02/18 02:40:35;;;;;;;18.08;4.95;;;;;;;8.32;87.13;100787.78;5011614;28;20129;-40
2022/02/18 02:43:05;;;;;;;19.83;4.95;;;;;;;8.32;87.23;100790.50;5012977;28;20129;-44
2022/02/18 02:45:34;;;;;;;17.88;5.05;;;;;;;8.31;88.19;100778.03;5013001;28;20086;-42
2022/02/18 02:48:01;;;;;;;17.70;5.65;;;;;;;8.31;88.28;100775.31;5014321;28;20050;-43
2022/02/18 02:50:47;;;;;;;13.93;4.70;;;;;;;8.31;88.31;100759.03;5014235;28;20082;-40
2022/02/18 02:53:17;;;;;;;21.70;5.90;;;;;;;8.30;88.05;100750.06;5006206;28;20046;-44
2022/02/18 02:55:44;;;;;;;23.70;6.70;;;;;;;8.30;88.36;100743.81;5005795;28;20088;-42
2022/02/18 02:58:13;;;;;;;21.75;5.95;;;;;;;8.34;88.66;100734.06;4996651;28;20042;-44
2022/02/18 03:00:43;;;;;;;19.38;5.38;;;;;;;8.29;89.36;100732.13;4986046;28;20069;-44
2022/02/18 03:03:19;;;;;;;19.67;5.40;;;;;;;8.31;89.61;100740.00;4993050;28;20097;-43
2022/02/18 03:05:56;;;;;;;22.50;6.10;;;;;;;8.31;90.22;100723.72;4994336;28;20444;-43
2022/02/18 03:08:24;;;;;;;23.80;5.50;;;;;;;8.29;90.23;100717.72;4977373;28;20042;-44
2022/02/18 03:13:45;;;;;;;22.77;5.57;;;;;;;8.31;90.53;100702.81;4998197;28;20046;-43
2022/02/18 03:16:14;;;;;;;22.50;5.95;;;;;;;8.32;91.38;100709.06;4996217;28;20069;-44
2022/02/18 03:18:44;;;;;;;25.52;6.07;;;;;;;8.32;90.96;100703.63;5011018;28;20547;-44
2022/02/18 03:21:12;;;;;;;23.42;6.57;;;;;;;8.32;91.11;100695.50;5012485;28;20053;-43
2022/02/18 03:23:40;;;;;;;29.50;6.85;;;;;;;8.31;91.58;100694.69;5013630;28;20061;-44
2022/02/18 03:26:08;;;;;;;22.45;6.13;;;;;;;8.35;91.81;100686.88;4996446;28;20041;-43
2022/02/18 03:28:36;;;;;;;24.58;6.70;;;;;;;8.33;91.79;100684.38;5012351;28;20073;-41
2022/02/18 03:31:20;;;;;;;23.65;6.50;;;;;;;8.33;92.30;100687.09;5004744;28;20043;-43
2022/02/18 03:33:48;;;;;;;25.45;6.72;;;;;;;8.34;92.60;100668.91;4993208;28;20145;-45
2022/02/18 03:36:16;;;;;;;24.38;6.00;;;;;;;8.35;92.72;100662.44;4994115;28;20042;-43
2022/02/18 03:38:44;;;;;;;22.70;5.93;;;;;;;8.37;92.05;100654.00;4992551;28;20070;-44
2022/02/18 03:41:11;;;;;;;24.27;6.03;;;;;;;8.39;92.20;100655.38;4992445;28;20405;-45
2022/02/18 03:43:42;;;;;;;19.52;4.75;;;;;;;8.38;92.03;100637.47;4993426;28;20125;-44
2022/02/18 03:46:39;;;;;;;21.83;4.80;;;;;;;8.38;92.46;100634.75;5016116;28;20061;-45
2022/02/18 03:49:08;;;;;;;22.88;5.80;;;;;;;8.39;92.85;100627.44;5012123;28;20042;-43
2022/02/18 03:51:36;;;;;;;24.85;6.55;;;;;;;8.38;92.68;100610.31;5010901;28;20493;-43
2022/02/18 03:54:04;;;;;;;20.98;6.07;;;;;;;8.38;92.00;100604.09;4992370;28;20039;-42
2022/02/18 03:56:33;;;;;;;20.30;5.68;;;;;;;8.35;92.19;100605.41;4976628;28;20081;-43
2022/02/18 03:59:01;;;;;;;22.67;5.78;;;;;;;8.36;92.33;100606.22;4992852;28;20047;-42
2022/02/18 04:01:29;;;;;;;23.15;5.95;;;;;;;8.35;92.77;100613.56;4992431;28;20038;-42
2022/02/18 04:03:57;;;;;;;22.92;6.40;;;;;;;8.35;92.83;100599.19;4993286;28;20042;-42
2022/02/18 04:06:40;;;;;;;28.42;7.20;;;;;;;8.33;93.43;100594.00;4994725;28;20089;-45
2022/02/18 04:09:16;;;;;;;24.33;6.40;;;;;;;8.30;92.87;100583.66;5013541;28;20042;-43
2022/02/18 04:11:55;;;;;;;27.23;6.85;;;;;;;8.32;93.14;100565.19;5012088;28;20061;-43
2022/02/18 04:14:26;;;;;;;23.08;6.18;;;;;;;8.33;92.93;100575.00;5012145;28;20046;-44
2022/02/18 04:17:03;;;;;;;20.17;5.57;;;;;;;8.34;93.29;100576.63;5011126;28;20041;-45
2022/02/18 04:19:33;;;;;;;22.00;5.70;;;;;;;8.35;92.59;100567.41;5012105;28;20045;-45
2022/02/18 04:22:25;;;;;;;29.13;6.50;;;;;;;8.36;93.03;100550.03;4991527;28;20249;-42
2022/02/18 04:24:54;;;;;;;22.73;6.00;;;;;;;8.36;93.23;100528.31;4992623;28;20516;-43
2022/02/18 04:27:21;;;;;;;23.63;5.85;;;;;;;8.36;92.67;100520.19;4993339;28;20052;-43
2022/02/18 04:29:49;;;;;;;25.70;6.82;;;;;;;8.30;93.71;100505.75;4993431;28;20053;-43
2022/02/18 04:32:16;;;;;;;21.10;6.20;;;;;;;8.29;93.62;100481.56;4993494;28;20469;-42
2022/02/18 04:34:44;;;;;;;26.92;7.32;;;;;;;8.29;93.07;100471.53;4993156;28;20057;-43
2022/02/18 04:37:12;;;;;;;26.27;6.60;;;;;;;8.26;94.13;100468.53;4993317;28;20050;-43
2022/02/18 04:39:39;;;;;;;25.80;7.28;;;;;;;8.20;94.41;100462.28;4993438;28;20045;-43
2022/02/18 04:42:07;;;;;;;19.50;6.05;;;;;;;8.23;94.66;100471.78;4992989;28;20042;-42
2022/02/18 04:44:35;;;;;;;26.15;6.57;;;;;;;8.29;93.81;100459.88;4994091;28;20092;-43
2022/02/18 04:47:02;;;;;;;27.88;7.00;;;;;;;8.26;94.00;100441.41;4998072;28;20048;-44
2022/02/18 04:49:30;;;;;;;34.38;7.65;;;;;;;8.22;93.71;100427.53;4996744;28;20050;-42
2022/02/18 04:52:14;;;;;;;31.70;8.10;;;;;;;8.22;93.97;100437.56;4995828;28;20133;-42
2022/02/18 04:54:43;;;;;;;23.88;5.65;;;;;;;8.30;94.07;100427.03;4996937;28;20042;-44
2022/02/18 04:57:11;;;;;;;25.98;7.00;;;;;;;8.29;93.37;100419.16;4963218;28;20133;-45
2022/02/18 04:59:39;;;;;;;23.20;5.68;;;;;;;8.21;94.08;100425.91;4997975;28;20046;-43
2022/02/18 05:02:06;;;;;;;24.83;5.90;;;;;;;8.22;93.77;100424.00;4996462;28;20578;-44
2022/02/18 05:04:34;;;;;;;20.73;5.97;;;;;;;8.22;94.03;100415.84;4996664;28;20049;-43
2022/02/18 05:07:02;;;;;;;19.38;6.03;;;;;;;8.25;93.34;100405.31;4996474;28;20405;-44
2022/02/18 05:09:29;;;;;;;25.27;6.50;;;;;;;8.27;93.52;100392.28;4996440;28;20064;-43
2022/02/18 05:11:57;;;;;;;20.92;6.25;;;;;;;8.25;92.64;100396.31;4997353;28;20078;-42
2022/02/18 05:14:24;;;;;;;26.08;6.25;;;;;;;8.25;92.63;100402.59;4994867;28;20129;-43
2022/02/18 05:16:52;;;;;;;25.95;6.40;;;;;;;8.22;93.27;100396.84;4995105;28;20049;-42
2022/02/18 05:19:20;;;;;;;19.42;5.32;;;;;;;8.24;92.61;100392.00;4996260;28;20073;-43
2022/02/18 05:21:48;;;;;;;25.83;6.32;;;;;;;8.24;92.09;100364.84;4979038;28;20049;-42
2022/02/18 05:24:15;;;;;;;21.55;6.15;;;;;;;8.23;92.27;100352.38;4996965;28;20049;-43
2022/02/18 05:26:43;;;;;;;22.92;6.82;;;;;;;8.18;92.03;100345.00;4996033;28;20058;-43
2022/02/18 05:29:11;;;;;;;25.13;6.55;;;;;;;8.14;93.05;100332.25;4995908;28;20061;-45
2022/02/18 05:31:39;;;;;;;27.25;6.68;;;;;;;8.14;92.92;100327.63;4994520;28;20493;-44
2022/02/18 05:34:11;;;;;;;23.48;6.43;;;;;;;8.17;92.79;100328.97;4995989;28;20054;-44
2022/02/18 05:36:39;;;;;;;24.70;6.05;;;;;;;8.18;92.04;100322.47;4996796;28;20042;-44
2022/02/18 05:39:07;;;;;;;27.58;6.78;;;;;;;8.18;92.71;100311.59;4994870;28;20404;-42
2022/02/18 05:41:34;;;;;;;24.02;6.57;;;;;;;8.19;91.62;100307.84;4994389;28;20074;-44
2022/02/18 05:44:02;;;;;;;22.50;6.32;;;;;;;8.17;91.93;100288.28;5002866;28;20030;-44
2022/02/18 05:46:30;;;;;;;25.23;6.45;;;;;;;8.17;91.30;100288.28;5015334;28;20038;-44
2022/02/18 05:48:58;;;;;;;25.77;6.30;;;;;;;8.19;92.07;100297.78;5014461;28;20061;-42
2022/02/18 05:51:25;;;;;;;20.23;6.05;;;;;;;8.17;91.40;100280.16;4995537;28;20049;-43
2022/02/18 05:53:53;;;;;;;26.60;6.68;;;;;;;8.16;91.51;100262.25;4995337;28;20046;-43
2022/02/18 05:56:21;;;;;;;20.30;5.03;;;;;;;8.16;91.82;100244.06;4995026;28;20052;-45
2022/02/18 05:58:48;;;;;;;18.63;5.05;;;;;;;8.17;91.86;100239.44;4995652;28;20396;-43
2022/02/18 06:01:20;;;;;;;22.27;5.88;;;;;;;8.16;91.29;100248.66;4995213;28;20051;-43
2022/02/18 06:03:48;;;;;;;19.52;5.40;;;;;;;8.19;91.66;100237.28;4995161;28;20042;-43
2022/02/18 06:06:17;;;;;;;25.20;6.35;;;;;;;8.20;91.07;100233.47;5003320;28;20124;-42
2022/02/18 06:08:46;;;;;;;23.83;6.97;;;;;;;8.18;90.88;100224.78;5014378;28;20038;-42
2022/02/18 06:11:13;;;;;;;23.92;6.55;;;;;;;8.18;91.33;100219.34;5014454;28;20076;-42
2022/02/18 06:13:41;;;;;;;18.52;5.38;;;;;;;8.23;91.26;100217.47;5011828;28;20038;-43
2022/02/18 06:16:09;;;;;;;20.83;5.95;;;;;;;8.27;91.71;100213.16;5014840;28;20088;-44
2022/02/18 06:18:36;;;;;;;23.42;5.97;;;;;;;8.26;91.73;100199.84;5014561;28;20034;-44
2022/02/18 06:21:04;;;;;;;26.23;6.07;;;;;;;8.29;92.34;100191.97;5014860;28;20050;-45
2022/02/18 06:23:31;;;;;;;19.85;5.80;;;;;;;8.26;93.31;100178.94;5014422;28;20056;-45
2022/02/18 06:25:59;;;;;;;23.15;5.57;;;;;;;8.20;94.33;100168.34;5006658;28;20050;-47
2022/02/18 06:28:27;;;;;;;21.98;5.70;;;;;;;8.20;95.33;100157.47;4994911;28;20046;-45
2022/02/18 06:30:54;;;;;;;24.55;6.70;;;;;;;8.16;95.82;100149.09;4995122;28;20404;-41
2022/02/18 06:33:22;;;;;;;9.30;3.33;;;;;;;8.57;94.89;100135.59;4994907;28;20057;-44
2022/02/18 06:35:50;;;;;;;13.00;3.65;;;;;;;8.67;95.13;100123.91;4996015;28;20072;-44
2022/02/18 06:38:18;;;;;;;12.75;3.85;;;;;;;8.78;94.41;100120.09;5009235;28;20039;-44
2022/02/18 06:40:47;;;;;;;19.27;4.78;;;;;;;8.83;94.39;100108.41;4994819;28;20066;-47
2022/02/18 06:43:15;;;;;;;19.52;5.50;;;;;;;8.66;95.14;100100.53;4994195;28;20049;-44
2022/02/18 06:45:42;;;;;;;13.20;4.18;;;;;;;8.73;95.09;100095.63;4993804;28;20050;-45
2022/02/18 06:48:15;;;;;;;16.30;4.70;;;;;;;8.58;95.80;100087.50;4994150;28;20057;-40
2022/02/18 06:50:43;;;;;;;15.20;4.95;;;;;;;8.49;96.17;100068.22;4302592;28;10000498;-45
2022/02/18 06:53:11;;;;;;;14.90;4.05;;;;;;;8.46;97.51;100061.44;5006590;28;20072;-44
2022/02/18 06:55:38;;;;;;;15.85;5.03;;;;;;;8.69;96.94;100045.69;5010731;28;20488;-44
2022/02/18 06:58:06;;;;;;;18.38;4.85;;;;;;;8.51;97.79;100044.34;5010704;28;20049;-44
2022/02/18 07:00:33;;;;;;;19.13;4.95;;;;;;;8.55;97.85;100039.19;5010582;28;20484;-44
2022/02/18 07:03:02;;;;;;;9.70;3.05;;;;;;;8.85;96.64;100024.72;5008573;28;20488;-46
2022/02/18 07:05:30;;;;;;;16.80;4.95;;;;;;;8.93;96.38;100002.44;5010166;28;20072;-43
2022/02/18 07:07:58;;;;;;;12.35;3.90;;;;;;;8.90;97.27;100020.09;5009585;28;20443;-45
2022/02/18 07:10:26;;;;;;;17.90;5.32;;;;;;;9.03;96.45;100013.25;5010643;28;20049;-45
2022/02/18 07:12:55;;;;;;;20.27;5.28;;;;;;;8.87;96.36;99998.91;5010681;28;20042;-45
2022/02/18 07:15:24;;;;;;;13.27;3.92;;;;;;;8.81;96.99;99999.22;4998750;28;20038;-45
2022/02/18 07:17:52;;;;;;;16.20;4.35;;;;;;;8.70;98.06;99984.84;4990701;28;20405;-45
2022/02/18 07:20:20;;;;;;;18.08;5.10;;;;;;;8.82;98.21;99979.91;4991115;28;20299;-45
2022/02/18 07:22:47;;;;;;;15.55;4.75;;;;;;;8.86;97.92;99983.72;4991113;28;20046;-44
2022/02/18 07:25:16;;;;;;;15.63;4.10;;;;;;;8.97;96.40;99960.00;4992131;28;20112;-44
2022/02/18 07:27:45;;;;;;;9.38;3.10;;;;;;;9.25;96.07;99955.81;4994313;28;20479;-45
2022/02/18 07:30:14;;;;;;;10.02;3.40;;;;;;;9.42;94.89;99946.47;4992140;28;20417;-45
2022/02/18 07:32:43;;;;;;;18.95;5.32;;;;;;;9.21;95.57;99943.88;4993793;28;20134;-43
2022/02/18 07:35:11;;;;;;;20.30;5.28;;;;;;;9.17;96.19;99931.94;4993832;28;20050;-45
2022/02/18 07:37:39;;;;;;;12.55;4.25;;;;;;;9.03;96.79;99929.03;4992278;28;20413;-45
2022/02/18 07:40:08;;;;;;;10.00;3.58;;;;;;;9.30;95.80;99919.63;4994708;28;20125;-43
2022/02/18 07:42:36;;;;;;;10.13;3.38;;;;;;;9.42;94.44;99922.00;4993307;28;20034;-42
2022/02/18 07:45:04;;;;;;;9.85;3.45;;;;;;;9.91;92.00;99912.91;4993601;28;20051;-45
2022/02/18 07:47:32;;;;;;;8.18;2.75;;;;;;;10.33;89.72;99898.63;4993849;28;20539;-41
2022/02/18 07:50:00;;;;;;;11.48;3.47;;;;;;;10.51;87.89;99888.94;4993518;28;20588;-43
2022/02/18 07:52:27;;;;;;;13.77;4.45;;;;;;;10.35;88.43;99877.38;4994707;28;20054;-44
2022/02/18 07:54:56;;;;;;;16.88;4.90;;;;;;;10.10;90.04;99866.72;4993399;28;20082;-45
2022/02/18 07:57:25;;;;;;;15.93;4.10;;;;;;;9.69;92.05;99867.97;4993509;28;20054;-44
2022/02/18 07:59:53;;;;;;;20.48;4.63;;;;;;;9.65;93.21;99869.63;4991993;28;20057;-46
2022/02/18 08:02:20;;;;;;;13.25;4.50;;;;;;;9.30;95.09;99852.47;4993493;28;20129;-45
2022/02/18 08:04:49;;;;;;;15.57;5.03;;;;;;;9.12;95.96;99850.47;4993947;28;20061;-45
2022/02/18 08:07:16;;;;;;;16.23;5.03;;;;;;;9.01;96.88;99857.03;4993395;28;20078;-43
2022/02/18 08:09:44;;;;;;;24.52;6.88;;;;;;;9.20;95.36;99843.59;4991941;28;20085;-43
2022/02/18 08:12:11;;;;;;;25.27;7.13;;;;;;;9.48;94.25;99839.31;4993108;28;20133;-45
2022/02/18 08:14:39;;;;;;;21.50;5.22;;;;;;;10.08;91.57;99839.81;4992052;28;20046;-44
2022/02/18 08:17:07;;;;;;;24.02;6.53;;;;;;;10.00;91.33;99824.09;4993063;28;20133;-41
2022/02/18 08:19:34;;;;;;;22.88;5.82;;;;;;;9.82;92.39;99818.31;4995532;28;20453;-44
2022/02/18 08:22:03;;;;;;;20.20;5.50;;;;;;;9.75;93.21;99812.41;4997170;28;20038;-44
2022/02/18 08:24:36;;;;;;;19.73;5.00;;;;;;;10.19;91.96;99794.22;4997096;28;20489;-46
2022/02/18 08:27:06;;;;;;;14.63;4.00;;;;;;;10.60;90.49;99797.25;4996114;28;20073;-44
2022/02/18 08:29:35;;;;;;;16.05;4.93;;;;;;;10.80;88.55;99784.47;4996736;28;20061;-44
2022/02/18 08:32:03;;;;;;;15.95;4.85;;;;;;;10.47;90.03;99791.75;4996830;28;20073;-44
2022/02/18 08:34:30;;;;;;;13.00;4.47;;;;;;;10.53;90.90;99783.19;4995675;28;20081;-44
2022/02/18 08:37:01;;;;;;;18.17;5.40;;;;;;;10.77;88.91;99777.69;5001618;28;20038;-41
2022/02/18 08:39:29;;;;;;;14.60;5.05;;;;;;;10.95;88.86;99765.16;4998887;28;20056;-46
2022/02/18 08:41:56;;;;;;;13.55;4.30;;;;;;;10.84;88.17;99763.69;5015061;28;20129;-42
2022/02/18 08:44:24;;;;;;;18.50;5.03;;;;;;;10.81;88.47;99753.41;5015742;28;20034;-44
2022/02/18 08:46:51;;;;;;;12.45;3.90;;;;;;;10.77;88.81;99749.63;5016169;28;20492;-44
2022/02/18 08:49:19;;;;;;;11.32;3.67;;;;;;;10.99;87.80;99732.66;5014887;28;20133;-44
2022/02/18 08:51:47;;;;;;;15.38;4.13;;;;;;;11.17;86.21;99728.28;5015945;28;20411;-43
2022/02/18 08:54:15;;;;;;;11.00;3.75;;;;;;;11.21;85.38;99727.41;5031233;28;20046;-45
2022/02/18 08:56:42;;;;;;;11.68;3.85;;;;;;;11.24;86.15;99717.81;5015942;28;20515;-43
2022/02/18 08:59:10;;;;;;;10.65;3.92;;;;;;;10.82;89.01;99709.50;4998480;28;20037;-46
2022/02/18 09:01:42;;;;;;;11.35;3.80;;;;;;;10.94;88.01;99711.75;5016087;28;20046;-45
2022/02/18 09:04:12;;;;;;;10.98;3.58;;;;;;;10.99;88.31;99703.50;5015784;28;20052;-45
2022/02/18 09:06:39;;;;;;;10.38;3.30;;;;;;;10.72;88.88;99690.59;5015878;28;20452;-45
2022/02/18 09:09:07;;;;;;;11.50;3.42;;;;;;;10.67;90.44;99679.78;5015781;28;20040;-45
2022/02/18 09:11:35;;;;;;;9.88;3.25;;;;;;;10.51;93.23;99679.22;5015521;28;20515;-45
2022/02/18 09:14:03;;;;;;;8.75;3.28;;;;;;;10.42;93.86;99668.16;5015618;28;20113;-47
2022/02/18 09:16:31;;;;;;;10.13;3.60;;;;;;;10.37;94.24;99653.81;5014721;28;20382;-44
2022/02/18 09:18:58;;;;;;;10.45;3.33;;;;;;;10.44;93.15;99660.53;5015723;28;20076;-42
2022/02/18 09:21:26;;;;;;;10.82;3.10;;;;;;;10.36;94.05;99646.75;5014733;28;20070;-44
2022/02/18 09:23:59;;;;;;;6.15;2.50;;;;;;;10.57;93.53;99642.59;5013352;28;20034;-42
2022/02/18 09:26:27;;;;;;;6.50;2.50;;;;;;;10.89;90.55;99635.53;4997975;28;20034;-45
2022/02/18 09:28:59;;;;;;;7.85;2.53;;;;;;;11.03;91.82;99639.09;4994690;28;20535;-45
2022/02/18 09:31:27;;;;;;;7.82;2.22;;;;;;;11.44;89.97;99638.34;4994909;28;20038;-45
2022/02/18 09:33:55;;;;;;;7.53;2.97;;;;;;;11.24;89.99;99633.28;4996356;28;20133;-45
2022/02/18 09:36:23;;;;;;;6.57;1.83;;;;;;;11.20;92.55;99626.81;4996325;28;20074;-45
2022/02/18 09:38:50;;;;;;;7.18;2.80;;;;;;;11.09;91.80;99629.72;4995508;28;20579;-45
2022/02/18 09:41:18;;;;;;;4.80;2.35;;;;;;;10.83;94.75;99634.81;4995789;28;20077;-44
2022/02/18 09:43:47;;;;;;;6.63;2.50;;;;;;;10.70;96.14;99627.41;5004249;28;20465;-44
2022/02/18 09:46:15;;;;;;;6.03;2.65;;;;;;;10.57;98.01;99631.72;5015309;28;20485;-46
2022/02/18 09:48:43;;;;;;;7.35;2.13;;;;;;;10.71;96.80;99620.06;5014294;28;20137;-46
2022/02/18 09:51:15;;;;;;;7.22;2.65;;;;;;;11.05;95.17;99625.19;5015228;28;20132;-47
2022/02/18 09:53:43;;;;;;;6.30;2.35;;;;;;;11.18;94.51;99608.00;5013706;28;20088;-46
2022/02/18 09:56:11;;;;;;;6.07;2.50;;;;;;;11.35;93.47;99601.97;5013840;28;20519;-47
2022/02/18 09:58:41;;;;;;;4.47;2.00;;;;;;;11.12;95.12;99602.97;5013837;28;20053;-46
2022/02/18 10:01:09;;;;;;;5.20;2.20;;;;;;;11.35;94.29;99585.59;5014998;28;20041;-48
2022/02/18 10:03:38;;;;;;;4.25;1.77;;;;;;;11.48;92.76;99576.63;5009373;28;20129;-46
2022/02/18 10:06:05;;;;;;;6.13;2.40;;;;;;;11.41;93.56;99568.03;4995032;28;20117;-46
2022/02/18 10:08:33;;;;;;;6.63;2.15;;;;;;;11.50;93.29;99558.03;4994309;28;20042;-46
2022/02/18 10:11:02;;;;;;;6.97;2.25;;;;;;;12.00;90.05;99561.88;4994279;28;20085;-41
2022/02/18 10:13:38;;;;;;;6.15;2.03;;;;;;;11.65;92.71;99556.88;4994700;28;20043;-49
2022/02/18 10:16:22;;;;;;;1.67;1.55;;;;;;;11.22;95.12;99549.06;4995397;28;20042;-44
2022/02/18 10:18:53;;;;;;;3.97;1.70;;;;;;;10.69;99.60;99540.56;4995149;28;20074;-45
2022/02/18 10:21:25;;;;;;;3.85;2.05;;;;;;;10.53;100.00;99540.81;5006014;28;20121;-47
2022/02/18 10:24:10;;;;;;;3.35;1.58;;;;;;;10.39;100.00;99537.25;5014633;28;20054;-46
2022/02/18 10:26:42;;;;;;;3.53;1.77;;;;;;;10.35;100.00;99528.06;5013769;28;20129;-46
2022/02/18 10:29:18;;;;;;;4.43;1.80;;;;;;;10.42;100.00;99514.88;5015071;28;20120;-44
2022/02/18 10:32:07;;;;;;;4.50;1.77;;;;;;;10.61;100.00;99480.22;5013435;28;20469;-50
2022/02/18 10:34:58;;;;;;;5.68;2.28;;;;;;;11.33;98.00;99473.31;5015470;28;20073;-48
2022/02/18 10:37:29;;;;;;;5.95;2.00;;;;;;;11.39;97.30;99469.34;5014308;28;20445;-41
2022/02/18 10:40:14;;;;;;;2.83;1.42;;;;;;;11.61;96.50;99476.75;5011376;28;20052;-45
2022/02/18 10:42:44;;;;;;;4.85;1.90;;;;;;;11.48;96.58;99464.78;4993563;28;20096;-41
2022/02/18 10:45:15;;;;;;;3.30;1.20;;;;;;;11.64;96.99;99461.69;4994431;28;20133;-42
2022/02/18 10:47:45;;;;;;;3.97;1.70;;;;;;;11.90;95.56;99460.00;4994738;28;20043;-42
2022/02/18 10:50:24;;;;;;;3.92;1.30;;;;;;;11.96;94.95;99440.78;4994293;28;20039;-45
2022/02/18 10:53:11;;;;;;;3.03;1.55;;;;;;;12.35;92.26;99416.25;4993411;28;20082;-43
2022/02/18 10:55:52;;;;;;;5.97;1.70;;;;;;;11.94;93.45;99409.13;4994355;28;20129;-46
2022/02/18 10:58:27;;;;;;;3.28;1.60;;;;;;;11.99;94.17;99401.94;4994546;28;20125;-46
2022/02/18 11:01:10;;;;;;;2.78;1.23;;;;;;;11.65;96.71;99390.47;5001384;28;20129;-46
2022/02/18 11:03:39;;;;;;;4.32;1.50;;;;;;;11.87;95.79;99384.22;4994675;28;20096;-45
2022/02/18 11:06:11;;;;;;;1.58;1.10;;;;;;;11.86;95.31;99374.41;4992935;28;20057;-43
2022/02/18 11:08:45;;;;;;;5.82;1.70;;;;;;;11.79;95.09;99378.69;4994269;28;20456;-43
2022/02/18 11:11:13;;;;;;;2.92;1.40;;;;;;;11.84;96.11;99367.63;4994892;28;20125;-46
2022/02/18 11:13:42;;;;;;;1.77;1.02;;;;;;;12.04;95.28;99355.41;4993984;28;20046;-48
2022/02/18 11:16:11;;;;;;;2.15;0.98;;;;;;;11.80;94.69;99361.19;4976944;28;20042;-45
2022/02/18 11:18:39;;;;;;;2.55;1.13;;;;;;;11.45;97.72;99344.59;4993840;28;20121;-44
2022/02/18 11:21:12;;;;;;;4.90;1.27;;;;;;;11.60;96.93;99352.41;5009045;28;20577;-43
2022/02/18 11:23:42;;;;;;;6.00;1.70;;;;;;;11.22;100.00;99346.50;5013657;28;20049;-44
2022/02/18 11:26:12;;;;;;;2.88;1.40;;;;;;;11.23;100.00;99342.66;5012350;28;20056;-44
2022/02/18 11:28:49;;;;;;;5.72;2.92;;;;;;;11.19;100.00;99337.03;5013897;28;20057;-47
2022/02/18 11:31:22;;;;;;;9.70;4.88;;;;;;;11.27;100.00;99327.28;5011961;28;20412;-46
2022/02/18 11:34:24;;;;;;;21.75;11.88;;;;;;;11.33;99.87;99323.34;5013682;28;20119;-43
2022/02/18 11:37:41;;;;;;;9.73;5.93;;;;;;;11.50;99.37;99319.94;5013630;28;20048;-43
2022/02/18 11:40:38;;;;;;;11.02;6.57;;;;;;;11.20;100.00;99294.19;5002387;28;20501;-44
2022/02/18 11:43:27;;;;;;;16.27;8.38;;;;;;;11.47;99.41;99283.16;4993550;28;20039;-46